Time;durP1;ratioP1;P1;durP2;ratioP2;P2;SDS_P1;SDS_P2;PMS_P1;PMS_P2;Temp;Humidity;BMP_temperature;BMP_pressure;BME280_temperature;BME280_humidity;BME280_pressure;Samples;Min_cycle;Max_cycle;Signal;HPM_P1;HPM_P2
2022/03/02 00:02:12;;;;;;;21.63;15.23;;;;;;;9.91;45.44;102545.75;5072039;28;20479;-71
2022/03/02 00:04:43;;;;;;;23.48;15.45;;;;;;;9.91;45.52;102542.19;5072298;28;20131;-71
2022/03/02 00:07:10;;;;;;;21.40;14.63;;;;;;;9.88;45.59;102537.84;5070750;28;20037;-72
2022/03/02 00:09:37;;;;;;;24.58;16.38;;;;;;;9.87;45.57;102538.78;5071792;28;20064;-71
2022/03/02 00:12:04;;;;;;;23.45;15.15;;;;;;;9.85;45.74;102533.47;5072051;28;20490;-72
2022/03/02 00:14:34;;;;;;;24.30;15.02;;;;;;;9.85;45.65;102538.84;5070891;28;20426;-71
2022/03/02 00:17:01;;;;;;;20.73;15.02;;;;;;;9.86;45.58;102537.91;5070872;28;20450;-71
2022/03/02 00:19:29;;;;;;;21.05;15.25;;;;;;;9.86;45.45;102543.25;5071978;28;20463;-72
2022/03/02 00:21:55;;;;;;;23.67;15.40;;;;;;;9.87;45.71;102538.78;5072209;28;20070;-71
2022/03/02 00:24:23;;;;;;;23.23;15.30;;;;;;;9.87;45.50;102546.81;5073242;28;20394;-72
2022/03/02 00:26:49;;;;;;;21.92;15.65;;;;;;;9.87;45.63;102544.13;5073139;28;20039;-72
2022/03/02 00:29:16;;;;;;;21.58;14.93;;;;;;;9.87;45.75;102547.69;5071906;28;20079;-71
2022/03/02 00:31:43;;;;;;;21.67;14.98;;;;;;;9.87;45.71;102546.81;5071669;28;20049;-71
2022/03/02 00:34:11;;;;;;;23.45;15.45;;;;;;;9.87;45.65;102549.50;5055430;28;20478;-72
2022/03/02 00:36:38;;;;;;;23.05;15.02;;;;;;;9.85;45.44;102544.19;5071724;28;20568;-71
2022/03/02 00:39:05;;;;;;;22.70;15.05;;;;;;;9.87;45.56;102533.41;5076249;28;20064;-71
2022/03/02 00:41:32;;;;;;;23.50;15.00;;;;;;;9.88;45.44;102527.09;5074158;28;20040;-71
2022/03/02 00:44:04;;;;;;;21.83;15.30;;;;;;;9.90;45.43;102525.22;5071001;28;20044;-71
2022/03/02 00:46:31;;;;;;;20.38;14.55;;;;;;;9.93;45.62;102524.22;5072186;28;20068;-71
2022/03/02 00:48:59;;;;;;;23.67;15.88;;;;;;;9.93;45.39;102521.53;5071150;28;20044;-71
2022/03/02 00:51:27;;;;;;;26.55;15.43;;;;;;;9.89;45.31;102520.81;5053170;28;20524;-71
2022/03/02 00:53:58;;;;;;;22.95;15.15;;;;;;;9.87;45.21;102525.34;5070643;28;20076;-72
2022/03/02 00:56:25;;;;;;;23.50;15.35;;;;;;;9.83;45.38;102513.00;5071598;28;20151;-71
2022/03/02 00:58:52;;;;;;;22.90;14.95;;;;;;;9.79;45.24;102522.13;5071389;28;20070;-72
2022/03/02 01:01:18;;;;;;;23.63;15.45;;;;;;;9.73;45.44;102525.06;5070395;28;20509;-71
2022/03/02 01:03:50;;;;;;;22.30;14.35;;;;;;;9.69;45.52;102526.13;5071718;28;20033;-72
2022/03/02 01:06:17;;;;;;;24.70;15.52;;;;;;;9.66;45.57;102515.47;5070513;28;20044;-71
2022/03/02 01:08:44;;;;;;;21.92;14.90;;;;;;;9.62;45.49;102520.09;5065559;28;20394;-71
2022/03/02 01:11:11;;;;;;;23.50;15.00;;;;;;;9.59;45.63;102520.22;5071159;28;20064;-71
2022/03/02 01:13:40;;;;;;;25.33;16.02;;;;;;;9.53;45.62;102510.59;5071093;28;20041;-72
2022/03/02 01:16:06;;;;;;;24.08;15.57;;;;;;;9.51;45.88;102507.13;5087867;28;20443;-71
2022/03/02 01:18:34;;;;;;;22.88;15.60;;;;;;;9.50;45.65;102507.16;5071016;28;20119;-71
2022/03/02 01:21:02;;;;;;;26.17;15.43;;;;;;;9.49;45.74;102506.31;5073509;28;20505;-71
2022/03/02 01:23:38;;;;;;;23.33;15.60;;;;;;;9.46;45.80;102502.88;5091234;28;20048;-71
2022/03/02 01:26:04;;;;;;;23.77;14.90;;;;;;;9.45;45.77;102502.00;5074015;28;20422;-71
2022/03/02 01:28:31;;;;;;;25.23;15.35;;;;;;;9.42;45.81;102499.44;5075351;28;20087;-71
2022/03/02 01:30:58;;;;;;;23.35;15.57;;;;;;;9.40;45.83;102504.00;5073984;28;20040;-71
2022/03/02 01:33:25;;;;;;;25.80;15.45;;;;;;;9.39;45.89;102499.56;5075361;28;20490;-71
2022/03/02 01:35:55;;;;;;;23.27;15.23;;;;;;;9.40;45.82;102489.69;5070387;28;20471;-70
2022/03/02 01:38:22;;;;;;;20.98;14.75;;;;;;;9.41;45.83;102491.44;5054880;28;20449;-71
2022/03/02 01:40:52;;;;;;;23.67;15.30;;;;;;;9.39;45.91;102483.47;5055336;28;20102;-72
2022/03/02 01:43:20;;;;;;;23.73;14.77;;;;;;;9.41;46.00;102483.41;5055610;28;20128;-71
2022/03/02 01:45:49;;;;;;;24.90;16.23;;;;;;;9.41;45.70;102486.09;5054077;28;20056;-71
2022/03/02 01:48:16;;;;;;;22.67;14.63;;;;;;;9.40;45.89;102482.53;5082437;28;20438;-70
2022/03/02 01:50:42;;;;;;;24.10;15.45;;;;;;;9.40;45.68;102482.53;5072414;28;20498;-70
2022/03/02 01:53:09;;;;;;;22.30;15.50;;;;;;;9.39;45.76;102483.47;5073155;28;20098;-71
2022/03/02 01:55:36;;;;;;;25.73;14.88;;;;;;;9.37;45.83;102477.28;5073420;28;20079;-72
2022/03/02 01:58:02;;;;;;;24.50;15.45;;;;;;;9.36;45.69;102480.91;5074382;28;20525;-71
2022/03/02 02:00:29;;;;;;;23.33;14.80;;;;;;;9.36;45.84;102480.03;5074822;28;20072;-71
2022/03/02 02:02:56;;;;;;;24.15;15.63;;;;;;;9.34;45.72;102481.91;5075095;28;20057;-71
2022/03/02 02:05:23;;;;;;;22.73;15.10;;;;;;;9.33;45.85;102475.66;5074842;28;20086;-70
2022/03/02 02:07:50;;;;;;;22.05;15.02;;;;;;;9.33;45.80;102467.63;5074492;28;20059;-71
2022/03/02 02:10:17;;;;;;;22.00;14.98;;;;;;;9.33;45.76;102469.44;5074555;28;20503;-71
2022/03/02 02:12:44;;;;;;;21.67;14.65;;;;;;;9.32;45.84;102473.94;5074632;28;20123;-70
2022/03/02 02:15:14;;;;;;;21.25;15.00;;;;;;;9.31;45.85;102472.19;5073641;28;20498;-71
2022/03/02 02:17:41;;;;;;;22.83;15.70;;;;;;;9.29;45.82;102474.03;5074399;28;20500;-71
2022/03/02 02:20:10;;;;;;;22.42;15.13;;;;;;;9.28;46.00;102471.44;5074444;28;20053;-71
2022/03/02 02:22:42;;;;;;;22.42;15.50;;;;;;;9.27;45.89;102473.22;5074688;28;20562;-70
2022/03/02 02:25:15;;;;;;;23.63;15.68;;;;;;;9.24;46.21;102463.50;5073277;28;20581;-71
2022/03/02 02:27:48;;;;;;;24.08;15.00;;;;;;;9.23;45.95;102460.88;5072952;28;20050;-71
2022/03/02 02:30:16;;;;;;;23.50;15.15;;;;;;;9.21;46.09;102460.94;5074746;28;20036;-71
2022/03/02 02:32:43;;;;;;;22.85;15.30;;;;;;;9.18;45.98;102453.03;5072230;28;20044;-71
2022/03/02 02:35:14;;;;;;;23.00;14.68;;;;;;;9.16;46.19;102454.91;5074198;28;20086;-71
2022/03/02 02:37:41;;;;;;;21.92;14.77;;;;;;;9.15;46.20;102444.25;5074226;28;20047;-71
2022/03/02 02:40:10;;;;;;;21.15;14.43;;;;;;;9.13;46.12;102446.09;5074528;28;20045;-71
2022/03/02 02:42:39;;;;;;;21.45;14.50;;;;;;;9.12;46.45;102442.56;5074567;28;20040;-70
2022/03/02 02:45:08;;;;;;;23.15;14.27;;;;;;;9.11;46.31;102445.28;5074642;28;20037;-71
2022/03/02 02:47:35;;;;;;;21.08;14.07;;;;;;;9.09;46.21;102436.44;5073200;28;20044;-71
2022/03/02 02:50:16;;;;;;;19.35;13.60;;;;;;;9.05;46.25;102433.00;5069789;28;20056;-71
2022/03/02 02:52:43;;;;;;;24.42;13.15;;;;;;;9.06;46.27;102433.88;5057218;28;20099;-70
2022/03/02 02:55:11;;;;;;;21.77;14.20;;;;;;;9.06;46.14;102431.19;5056188;28;20127;-71
2022/03/02 02:57:37;;;;;;;21.27;13.70;;;;;;;9.06;46.17;102434.75;5073784;28;20436;-71
2022/03/02 03:00:08;;;;;;;19.10;13.35;;;;;;;9.05;46.11;102432.13;5073809;28;20464;-71
2022/03/02 03:02:35;;;;;;;23.95;13.48;;;;;;;9.03;46.14;102429.50;5073399;28;20115;-71
2022/03/02 03:05:04;;;;;;;20.42;13.18;;;;;;;9.01;46.09;102435.88;5055370;28;20666;-71
2022/03/02 03:07:31;;;;;;;23.65;14.65;;;;;;;8.99;46.12;102429.69;5072954;28;20048;-71
2022/03/02 03:09:58;;;;;;;23.73;14.63;;;;;;;8.95;46.15;102422.72;5072974;28;20063;-71
2022/03/02 03:12:25;;;;;;;21.70;15.02;;;;;;;8.92;46.06;102426.38;5054973;28;20045;-71
2022/03/02 03:14:53;;;;;;;22.25;14.27;;;;;;;8.89;46.28;102426.47;5071653;28;20151;-72
2022/03/02 03:17:20;;;;;;;26.60;14.25;;;;;;;8.87;46.01;102423.84;5072596;28;20552;-71
2022/03/02 03:19:46;;;;;;;22.58;13.88;;;;;;;8.83;46.07;102432.06;5072572;28;20128;-71
2022/03/02 03:22:13;;;;;;;20.67;14.02;;;;;;;8.78;45.94;102432.25;5072480;28;20047;-72
2022/03/02 03:24:44;;;;;;;19.85;13.68;;;;;;;8.75;46.03;102435.03;5071059;28;20040;-71
2022/03/02 03:27:11;;;;;;;22.23;13.80;;;;;;;8.73;46.03;102428.00;5072820;28;20094;-71
2022/03/02 03:29:38;;;;;;;22.17;14.43;;;;;;;8.68;45.93;102425.50;5072307;28;20119;-71
2022/03/02 03:32:06;;;;;;;21.92;14.30;;;;;;;8.66;46.18;102422.00;5072411;28;20097;-71
2022/03/02 03:34:34;;;;;;;22.67;14.13;;;;;;;8.61;45.84;102418.63;5072447;28;20044;-71
2022/03/02 03:37:00;;;;;;;20.17;13.32;;;;;;;8.61;45.98;102426.66;5071867;28;20083;-71
2022/03/02 03:39:27;;;;;;;22.65;13.38;;;;;;;8.59;46.07;102426.72;5071995;28;20068;-71
2022/03/02 03:41:55;;;;;;;19.70;13.55;;;;;;;8.59;45.87;102417.81;5072078;28;20252;-71
2022/03/02 03:44:24;;;;;;;21.42;13.90;;;;;;;8.58;46.08;102421.41;5072138;28;20040;-71
2022/03/02 03:46:51;;;;;;;20.13;12.73;;;;;;;8.58;45.98;102426.78;5054436;28;20079;-71
2022/03/02 03:49:18;;;;;;;21.63;13.60;;;;;;;8.56;45.89;102417.94;5071964;28;20115;-71
2022/03/02 03:51:45;;;;;;;21.65;13.57;;;;;;;8.52;45.93;102419.84;5070915;28;20437;-71
2022/03/02 03:54:13;;;;;;;20.92;12.95;;;;;;;8.50;45.84;102420.84;5072137;28;20436;-70
2022/03/02 03:56:39;;;;;;;21.30;13.63;;;;;;;8.48;45.88;102426.25;5072014;28;20044;-70
2022/03/02 03:59:07;;;;;;;23.27;15.13;;;;;;;8.47;45.91;102413.78;5072038;28;20562;-71
2022/03/02 04:01:34;;;;;;;24.50;13.60;;;;;;;8.47;45.90;102424.50;5071755;28;20103;-71
2022/03/02 04:04:06;;;;;;;22.33;14.68;;;;;;;8.47;46.02;102415.59;5072230;28;20457;-71
2022/03/02 04:06:33;;;;;;;23.02;13.80;;;;;;;8.46;45.85;102412.03;5072013;28;20056;-70
2022/03/02 04:09:00;;;;;;;22.38;14.60;;;;;;;8.47;45.90;102418.28;5072062;28;20041;-71
2022/03/02 04:11:27;;;;;;;21.05;14.10;;;;;;;8.44;45.86;102405.88;5071943;28;20482;-71
2022/03/02 04:13:58;;;;;;;21.52;13.55;;;;;;;8.41;45.87;102403.31;5072421;28;20061;-71
2022/03/02 04:16:24;;;;;;;21.17;13.52;;;;;;;8.41;45.84;102403.31;5072263;28;20045;-71
2022/03/02 04:18:51;;;;;;;19.48;13.95;;;;;;;8.40;45.75;102401.56;5071891;28;20388;-71
2022/03/02 04:21:18;;;;;;;23.58;13.52;;;;;;;8.40;45.95;102400.69;5054406;28;20131;-71
2022/03/02 04:23:48;;;;;;;19.77;13.38;;;;;;;8.42;45.83;102394.34;5054678;28;20135;-71
2022/03/02 04:26:14;;;;;;;18.85;13.10;;;;;;;8.44;45.84;102395.16;5072416;28;20120;-71
2022/03/02 04:28:41;;;;;;;22.17;14.05;;;;;;;8.47;45.84;102391.50;5072152;28;20427;-71
2022/03/02 04:31:08;;;;;;;21.40;13.57;;;;;;;8.49;45.78;102385.16;5071734;28;20064;-71
2022/03/02 04:33:37;;;;;;;21.58;13.60;;;;;;;8.52;45.69;102384.16;5071507;28;20534;-71
2022/03/02 04:36:05;;;;;;;22.65;13.88;;;;;;;8.52;45.82;102389.50;5071356;28;20041;-71
2022/03/02 04:38:32;;;;;;;20.65;13.60;;;;;;;8.50;45.97;102386.91;5071163;28;20040;-71
2022/03/02 04:40:59;;;;;;;22.27;13.50;;;;;;;8.50;45.89;102386.91;5070028;28;20064;-71
2022/03/02 04:43:29;;;;;;;21.20;13.13;;;;;;;8.48;45.56;102382.53;5070201;28;20124;-72
2022/03/02 04:45:57;;;;;;;20.63;13.35;;;;;;;8.46;45.87;102379.03;5071160;28;20057;-71
2022/03/02 04:48:24;;;;;;;22.10;12.80;;;;;;;8.43;45.78;102380.03;5069791;28;20090;-70
2022/03/02 04:50:51;;;;;;;20.50;14.05;;;;;;;8.39;45.77;102378.41;5071059;28;20045;-71
2022/03/02 04:53:18;;;;;;;21.15;13.52;;;;;;;8.35;45.84;102375.91;5069528;28;20049;-71
2022/03/02 04:55:45;;;;;;;21.73;13.90;;;;;;;8.31;45.79;102376.91;5072014;28;20128;-71
2022/03/02 04:58:12;;;;;;;20.17;13.68;;;;;;;8.28;45.77;102373.41;5074991;28;20079;-71
2022/03/02 05:00:39;;;;;;;21.77;13.57;;;;;;;8.25;45.79;102373.53;5075024;28;20071;-71
2022/03/02 05:03:07;;;;;;;21.80;13.50;;;;;;;8.23;45.81;102370.03;5053464;28;20056;-71
2022/03/02 05:05:38;;;;;;;19.63;13.43;;;;;;;8.22;45.93;102376.31;5057849;28;20065;-70
2022/03/02 05:08:06;;;;;;;26.05;13.75;;;;;;;8.23;46.00;102371.84;5074710;28;20045;-71
2022/03/02 05:10:33;;;;;;;20.63;13.63;;;;;;;8.22;45.84;102368.28;5074688;28;20502;-70
2022/03/02 05:13:01;;;;;;;23.65;13.65;;;;;;;8.22;45.78;102360.25;5074569;28;20141;-71
2022/03/02 05:15:30;;;;;;;22.95;13.93;;;;;;;8.24;45.76;102362.88;5073716;28;20044;-70
2022/03/02 05:17:58;;;;;;;21.40;13.07;;;;;;;8.24;45.76;102355.72;5056591;28;20076;-71
2022/03/02 05:20:25;;;;;;;23.08;14.15;;;;;;;8.23;45.86;102358.47;5073095;28;20037;-71
2022/03/02 05:22:52;;;;;;;19.80;12.70;;;;;;;8.22;45.66;102354.03;5073106;28;20045;-71
2022/03/02 05:25:20;;;;;;;21.33;13.70;;;;;;;8.19;45.66;102360.38;5074655;28;20040;-71
2022/03/02 05:27:47;;;;;;;20.55;13.27;;;;;;;8.14;45.64;102367.66;5074305;28;20466;-71
2022/03/02 05:30:16;;;;;;;18.45;12.88;;;;;;;8.10;45.90;102368.72;5074282;28;20042;-71
2022/03/02 05:32:43;;;;;;;21.20;14.23;;;;;;;8.05;45.70;102362.66;5072620;28;20395;-71
2022/03/02 05:35:11;;;;;;;20.60;13.38;;;;;;;8.01;45.71;102361.00;5056523;28;20136;-71
2022/03/02 05:37:42;;;;;;;21.70;12.98;;;;;;;7.97;45.66;102359.38;5074153;28;20132;-71
2022/03/02 05:40:15;;;;;;;21.50;13.93;;;;;;;7.93;45.68;102368.44;5073577;28;20415;-70
2022/03/02 05:42:48;;;;;;;20.80;12.88;;;;;;;7.89;45.82;102361.47;5062343;28;20049;-71
2022/03/02 05:45:15;;;;;;;21.50;13.30;;;;;;;7.87;45.74;102356.16;5071549;28;20049;-70
2022/03/02 05:47:41;;;;;;;22.38;13.68;;;;;;;7.85;45.74;102360.69;5060923;28;20049;-71
2022/03/02 05:50:09;;;;;;;21.40;13.18;;;;;;;7.81;45.68;102350.16;5073901;28;20049;-70
2022/03/02 05:52:36;;;;;;;21.20;12.70;;;;;;;7.78;45.81;102350.28;5071380;28;20128;-71
2022/03/02 05:55:05;;;;;;;19.23;13.20;;;;;;;7.74;45.83;102352.19;5061745;28;20072;-70
2022/03/02 05:57:32;;;;;;;20.67;13.00;;;;;;;7.73;45.77;102357.59;5076981;28;20048;-71
2022/03/02 05:59:58;;;;;;;22.92;14.00;;;;;;;7.69;45.81;102354.13;5064480;28;20056;-71
2022/03/02 06:02:25;;;;;;;18.17;12.65;;;;;;;7.65;46.02;102353.38;5070536;28;20072;-71
2022/03/02 06:04:53;;;;;;;22.23;13.27;;;;;;;7.62;45.93;102360.63;5053202;28;20051;-70
2022/03/02 06:07:20;;;;;;;20.02;12.95;;;;;;;7.60;45.82;102360.69;5064542;28;20482;-70
2022/03/02 06:09:49;;;;;;;22.23;13.27;;;;;;;7.60;45.83;102363.34;5061294;28;20032;-71
2022/03/02 06:12:16;;;;;;;19.23;13.07;;;;;;;7.59;45.86;102364.28;5066443;28;20136;-71
2022/03/02 06:26:01;;;;;;;22.35;13.77;;;;;;;7.44;45.95;102369.28;5066079;28;20039;-71
2022/03/02 06:28:28;;;;;;;25.15;13.45;;;;;;;7.41;46.04;102370.22;5060257;28;20043;-71
2022/03/02 06:30:54;;;;;;;21.05;13.25;;;;;;;7.40;46.16;102367.59;5055666;28;20129;-70
2022/03/02 06:33:21;;;;;;;21.25;13.57;;;;;;;7.39;46.05;102371.19;5066799;28;20048;-71
2022/03/02 06:36:00;;;;;;;21.65;13.80;;;;;;;7.38;46.29;102373.00;5064777;28;20139;-71
2022/03/02 06:38:27;;;;;;;20.27;13.90;;;;;;;7.37;46.22;102375.72;5068622;28;20037;-71
2022/03/02 06:41:12;;;;;;;20.73;12.13;;;;;;;7.37;46.19;102378.41;5067401;28;20052;-71
2022/03/02 06:44:07;;;;;;;21.00;13.45;;;;;;;7.35;46.38;102370.44;5060026;28;20064;-71
2022/03/02 06:46:55;;;;;;;21.33;13.43;;;;;;;7.33;46.29;102375.81;5053338;28;20525;-71
2022/03/02 06:49:35;;;;;;;20.85;13.25;;;;;;;7.35;46.35;102381.13;5065729;28;20064;-72
2022/03/02 06:52:18;;;;;;;20.55;12.57;;;;;;;7.32;46.55;102379.44;5056598;28;20040;-70
2022/03/02 06:54:50;;;;;;;25.33;14.52;;;;;;;7.33;46.50;102389.19;5067418;28;20064;-70
2022/03/02 06:57:21;;;;;;;20.95;13.85;;;;;;;7.34;46.62;102387.38;5055102;28;20060;-71
2022/03/02 06:59:53;;;;;;;22.65;13.20;;;;;;;7.36;46.53;102387.34;5057376;28;20037;-70
2022/03/02 07:03:02;;;;;;;22.75;13.55;;;;;;;7.34;46.59;102396.28;5070632;28;20040;-71
2022/03/02 07:05:29;;;;;;;20.05;12.98;;;;;;;7.39;46.52;102395.25;5037901;28;20110;-71
2022/03/02 07:07:59;;;;;;;21.45;14.10;;;;;;;7.41;46.61;102386.25;5074592;28;20376;-71
2022/03/02 07:10:26;;;;;;;23.33;14.52;;;;;;;7.44;46.72;102388.88;5067774;28;20127;-68
2022/03/02 07:12:53;;;;;;;22.80;14.15;;;;;;;7.46;46.64;102388.81;5074772;28;20505;-68
2022/03/02 07:15:25;;;;;;;21.95;13.93;;;;;;;7.49;46.62;102384.25;5068736;28;20423;-68
2022/03/02 07:17:51;;;;;;;19.40;13.25;;;;;;;7.52;46.71;102385.94;5054381;28;20068;-68
2022/03/02 07:20:18;;;;;;;23.27;13.60;;;;;;;7.58;46.73;102388.41;5064848;28;20033;-68
2022/03/02 07:22:52;;;;;;;27.38;14.25;;;;;;;7.64;46.71;102383.72;5052185;28;20041;-68
2022/03/02 07:25:29;;;;;;;24.42;13.65;;;;;;;7.74;46.82;102380.72;5065438;28;20098;-69
2022/03/02 07:27:57;;;;;;;19.73;13.95;;;;;;;7.85;47.16;102383.91;5072431;28;20041;-68
2022/03/02 07:30:25;;;;;;;21.35;13.93;;;;;;;7.96;46.93;102385.25;5072406;28;20106;-68
2022/03/02 07:33:01;;;;;;;21.10;13.80;;;;;;;8.11;46.94;102386.50;5070303;28;20068;-69
2022/03/02 07:35:35;;;;;;;21.73;13.10;;;;;;;8.26;46.92;102390.47;5059501;28;20053;-68
2022/03/02 07:38:07;;;;;;;25.48;12.23;;;;;;;8.40;46.79;102389.97;5069636;28;20560;-69
2022/03/02 07:40:35;;;;;;;21.10;13.27;;;;;;;8.57;46.68;102388.41;5068450;28;20115;-69
2022/03/02 07:43:01;;;;;;;21.52;13.15;;;;;;;8.74;46.68;102387.75;5066239;28;20462;-68
2022/03/02 07:45:32;;;;;;;18.42;12.32;;;;;;;8.93;46.52;102387.06;5056521;28;20043;-69
2022/03/02 07:47:58;;;;;;;22.25;13.05;;;;;;;9.12;46.47;102378.22;5063411;28;20049;-69
2022/03/02 07:50:25;;;;;;;16.42;11.75;;;;;;;9.27;46.25;102384.78;5068464;28;20091;-69
2022/03/02 07:52:54;;;;;;;20.48;12.68;;;;;;;9.38;46.17;102376.28;5071028;28;20050;-69
2022/03/02 07:55:25;;;;;;;18.77;12.48;;;;;;;9.47;46.10;102379.44;5071609;28;20052;-69
2022/03/02 07:57:55;;;;;;;17.13;12.65;;;;;;;9.56;45.88;102386.22;5053530;28;20103;-66
2022/03/02 08:00:23;;;;;;;19.50;13.02;;;;;;;9.67;45.80;102377.75;5067448;28;20045;-65
2022/03/02 08:02:53;;;;;;;21.52;12.27;;;;;;;9.82;45.65;102380.66;5050620;28;20044;-66
2022/03/02 08:05:21;;;;;;;19.15;12.07;;;;;;;9.98;45.41;102372.78;5052208;28;20065;-67
2022/03/02 08:07:49;;;;;;;16.70;12.27;;;;;;;10.15;45.38;102367.53;5065848;28;20087;-66
2022/03/02 08:10:17;;;;;;;20.75;12.05;;;;;;;10.34;45.02;102370.28;5060274;28;20120;-67
2022/03/02 08:12:45;;;;;;;17.77;12.00;;;;;;;10.52;44.93;102368.59;5071588;28;20070;-67
2022/03/02 08:15:15;;;;;;;18.48;11.70;;;;;;;10.67;44.62;102364.31;5071100;28;20032;-67
2022/03/02 08:17:43;;;;;;;18.73;11.63;;;;;;;10.82;44.59;102368.97;5071380;28;20045;-68
2022/03/02 08:20:11;;;;;;;18.83;11.95;;;;;;;10.99;44.10;102363.66;5070483;28;20485;-67
2022/03/02 08:22:44;;;;;;;18.73;11.25;;;;;;;11.16;43.77;102365.53;5071675;28;20075;-68
2022/03/02 08:25:12;;;;;;;18.17;11.02;;;;;;;11.38;43.69;102371.59;5071490;28;20076;-68
2022/03/02 08:27:40;;;;;;;16.92;10.98;;;;;;;11.64;43.42;102364.03;5070651;28;20063;-68
2022/03/02 08:30:08;;;;;;;15.82;10.90;;;;;;;11.89;43.07;102364.56;5070546;28;20045;-68
2022/03/02 08:32:40;;;;;;;23.38;11.45;;;;;;;12.15;42.58;102363.16;5073344;28;20123;-68
2022/03/02 08:35:12;;;;;;;18.30;11.55;;;;;;;12.39;42.49;102358.28;5076488;28;20061;-68
2022/03/02 08:37:41;;;;;;;15.68;10.95;;;;;;;12.60;42.38;102358.91;5075334;28;20076;-67
2022/03/02 08:40:09;;;;;;;16.77;10.68;;;;;;;12.80;41.89;102356.00;5075899;28;20060;-66
2022/03/02 08:42:38;;;;;;;16.02;12.13;;;;;;;12.97;41.67;102355.03;5075321;28;20037;-70
2022/03/02 08:45:07;;;;;;;18.25;12.07;;;;;;;13.16;41.29;102354.84;5075731;28;20528;-71
2022/03/02 08:47:34;;;;;;;17.60;10.60;;;;;;;13.34;40.79;102351.13;5075479;28;20068;-70
2022/03/02 08:50:02;;;;;;;14.18;9.80;;;;;;;13.43;40.63;102350.59;5075167;28;20032;-70
2022/03/02 08:52:33;;;;;;;16.20;10.52;;;;;;;13.53;40.32;102348.22;5075111;28;20062;-70
2022/03/02 08:55:29;;;;;;;14.32;10.25;;;;;;;13.62;39.97;102342.28;5075415;28;20044;-71
2022/03/02 08:57:57;;;;;;;;;;;;;;;13.72;40.16;102343.47;5074919;28;20094;-70
2022/03/02 09:00:24;;;;;;;14.05;10.45;;;;;;;13.81;40.20;102342.03;5074465;28;19920;-71
2022/03/02 09:02:52;;;;;;;19.60;10.45;;;;;;;13.87;39.69;102339.81;5075504;28;20094;-71
2022/03/02 09:05:19;;;;;;;15.05;9.40;;;;;;;13.91;39.29;102343.22;5073440;28;20476;-70
2022/03/02 09:07:47;;;;;;;13.27;9.00;;;;;;;13.94;38.94;102341.19;5073589;28;20040;-71
2022/03/02 09:10:13;;;;;;;15.68;10.35;;;;;;;14.04;38.86;102346.03;5073953;28;20048;-71
2022/03/02 09:12:41;;;;;;;13.75;9.82;;;;;;;14.10;38.72;102326.72;5073334;28;20131;-71
2022/03/02 09:15:08;;;;;;;15.20;9.68;;;;;;;14.14;38.48;102328.31;5073721;28;20036;-71
2022/03/02 09:17:36;;;;;;;14.73;10.30;;;;;;;14.23;38.31;102327.72;5073441;28;20048;-71
2022/03/02 09:20:04;;;;;;;15.15;9.70;;;;;;;14.35;37.75;102321.56;5073933;28;20060;-72
2022/03/02 09:22:33;;;;;;;12.32;9.85;;;;;;;14.42;37.66;102322.03;5057214;28;20070;-71
2022/03/02 09:25:03;;;;;;;14.35;10.20;;;;;;;14.44;37.50;102323.69;5075420;28;20044;-70
2022/03/02 09:27:30;;;;;;;17.73;10.07;;;;;;;14.46;37.41;102321.75;5074417;28;20536;-72
2022/03/02 09:29:59;;;;;;;14.48;10.75;;;;;;;14.47;37.00;102323.50;5075655;28;20518;-73
2022/03/02 09:32:30;;;;;;;13.57;9.90;;;;;;;14.49;36.81;102320.69;5075838;28;20032;-71
2022/03/02 09:35:04;;;;;;;13.60;9.25;;;;;;;14.47;36.74;102318.09;5076231;28;20064;-73
2022/03/02 09:37:35;;;;;;;14.32;10.32;;;;;;;14.43;36.65;102323.78;5075047;28;20036;-71
2022/03/02 09:40:04;;;;;;;15.45;10.07;;;;;;;14.34;36.49;102318.94;5073435;28;20857;-71
2022/03/02 09:42:42;;;;;;;15.30;10.77;;;;;;;14.20;36.34;102314.41;5073465;28;20044;-71
2022/03/02 09:45:11;;;;;;;16.65;10.75;;;;;;;14.08;36.30;102318.72;5075016;28;20070;-72
2022/03/02 09:47:56;;;;;;;16.40;9.90;;;;;;;13.95;36.34;102313.22;5074111;28;20040;-71
2022/03/02 09:50:26;;;;;;;13.23;9.70;;;;;;;13.86;36.11;102326.41;5074750;28;20053;-72
2022/03/02 09:52:54;;;;;;;15.18;9.90;;;;;;;13.81;36.32;102312.31;5074873;28;20414;-71
2022/03/02 09:55:26;;;;;;;12.98;9.57;;;;;;;13.82;36.17;102316.75;5075204;28;20135;-71
2022/03/02 09:58:02;;;;;;;13.98;9.77;;;;;;;13.84;36.21;102313.00;5074916;28;20068;-71
2022/03/02 10:00:33;;;;;;;13.93;9.88;;;;;;;13.92;36.43;102309.84;5070262;28;20582;-72
2022/03/02 10:03:01;;;;;;;13.18;9.88;;;;;;;14.04;36.44;102305.50;5054734;28;20044;-71
2022/03/02 10:05:33;;;;;;;13.82;9.90;;;;;;;14.17;36.16;102307.38;5054940;28;20033;-71
2022/03/02 10:08:07;;;;;;;15.23;10.15;;;;;;;14.32;36.21;102305.53;5069967;28;20048;-71
2022/03/02 10:10:37;;;;;;;14.75;10.27;;;;;;;14.46;36.25;102304.69;5055001;28;20455;-71
2022/03/02 10:13:08;;;;;;;15.13;9.95;;;;;;;14.55;35.81;102301.38;5073196;28;20066;-71
2022/03/02 10:15:40;;;;;;;15.93;10.40;;;;;;;14.67;35.60;102299.72;5073518;28;20028;-72
2022/03/02 10:18:11;;;;;;;12.75;9.60;;;;;;;14.79;35.34;102307.03;5074313;28;20044;-71
2022/03/02 10:20:43;;;;;;;12.88;9.85;;;;;;;14.91;35.24;102295.44;5074618;28;20591;-70
2022/03/02 10:23:21;;;;;;;14.07;9.60;;;;;;;15.06;35.24;102293.53;5069817;28;20045;-70
2022/03/02 10:26:01;;;;;;;14.55;9.00;;;;;;;15.20;35.04;102290.78;5062756;28;20040;-71
2022/03/02 10:28:58;;;;;;;15.48;9.90;;;;;;;15.31;34.69;102296.31;5077350;28;20159;-71
2022/03/02 10:31:39;;;;;;;13.90;9.38;;;;;;;15.39;34.71;102293.09;5047544;28;20053;-71
2022/03/02 10:34:27;;;;;;;16.38;9.63;;;;;;;15.47;34.59;102294.31;5073725;28;20127;-71
2022/03/02 10:37:05;;;;;;;17.75;10.18;;;;;;;15.51;34.51;102290.41;5072599;28;20846;-71
2022/03/02 10:39:56;;;;;;;13.88;9.25;;;;;;;15.56;34.11;102290.97;5073574;28;20426;-71
2022/03/02 10:42:28;;;;;;;12.80;9.52;;;;;;;15.61;34.33;102292.56;5073796;28;20073;-70
2022/03/02 10:45:10;;;;;;;14.27;9.82;;;;;;;15.62;33.94;102297.84;5072240;28;20383;-72
2022/03/02 10:47:55;;;;;;;11.32;9.15;;;;;;;15.62;33.79;102297.84;5063982;28;20049;-71
2022/03/02 10:50:24;;;;;;;14.52;9.90;;;;;;;15.65;33.75;102288.66;5072206;28;20135;-72
2022/03/02 10:52:54;;;;;;;12.57;9.43;;;;;;;15.67;33.58;102295.69;5071237;28;20120;-71
2022/03/02 10:55:22;;;;;;;15.23;9.23;;;;;;;15.75;33.56;102289.75;5071473;28;20048;-70
2022/03/02 10:57:51;;;;;;;15.13;9.27;;;;;;;15.81;33.18;102286.59;5072967;28;20044;-71
2022/03/02 11:00:23;;;;;;;18.38;9.52;;;;;;;15.84;33.27;102287.25;5072943;28;20040;-72
2022/03/02 11:02:56;;;;;;;13.90;9.07;;;;;;;15.90;32.89;102294.09;5072794;28;20482;-72
2022/03/02 11:05:27;;;;;;;13.23;9.75;;;;;;;15.98;32.91;102298.97;5073080;28;20044;-72
2022/03/02 11:07:54;;;;;;;13.90;9.77;;;;;;;16.06;32.82;102288.44;5072049;28;20048;-71
2022/03/02 11:10:30;;;;;;;14.05;9.35;;;;;;;16.12;32.75;102282.59;5068310;28;20087;-71
2022/03/02 11:12:58;;;;;;;12.45;9.20;;;;;;;16.18;32.64;102276.72;5052779;28;20072;-71
2022/03/02 11:15:26;;;;;;;15.63;9.63;;;;;;;16.25;32.28;102283.44;5052956;28;20052;-71
2022/03/02 11:17:56;;;;;;;12.55;9.10;;;;;;;16.32;32.54;102283.84;5052520;28;20087;-71
2022/03/02 11:20:25;;;;;;;13.82;9.40;;;;;;;16.38;32.22;102275.31;5072010;28;20098;-71
2022/03/02 11:22:58;;;;;;;13.45;9.30;;;;;;;16.45;32.08;102273.88;5072294;28;20506;-71
2022/03/02 11:25:51;;;;;;;15.43;9.52;;;;;;;16.49;31.78;102268.13;5072679;28;20123;-70
2022/03/02 11:28:20;;;;;;;10.80;8.38;;;;;;;16.47;31.49;102267.38;5072368;28;20040;-70
2022/03/02 11:30:50;;;;;;;14.27;9.32;;;;;;;16.50;31.78;102264.44;5072234;28;20040;-71
2022/03/02 11:33:21;;;;;;;12.55;9.43;;;;;;;16.57;31.11;102259.41;5072192;28;20072;-71
2022/03/02 11:35:51;;;;;;;13.00;9.32;;;;;;;16.57;31.00;102255.84;5072465;28;20033;-71
2022/03/02 11:38:20;;;;;;;13.93;9.45;;;;;;;16.62;31.11;102250.94;5072175;28;20033;-71
2022/03/02 11:40:49;;;;;;;12.70;9.18;;;;;;;16.66;31.10;102241.63;5071463;28;20170;-71